Terminal Aerodrome Forecast
Issued by NWS

Home | Current Version | Previous Version | Text Only | Print | Product List | Glossary On
Versions: 1 2 3 4 5 6 7 8 9 10 11 12 13 14 15 16 17 18 19 20 21 22 23 24 25 26
000
FTUS45 KGJT 291720
TAFDRO
TAF
KDRO 291720Z 2918/3018 13005KT P6SM SCT100 BKN200
     FM292000 24008G18KT P6SM SCT100 BKN200
     FM300200 14006KT P6SM SCT060 BKN100
     FM300600 06004KT P6SM BKN050 BKN100
     FM301000 00000KT P6SM BKN250=

USA.gov is the U.S. government's official web portal to all federal, state and local government web resources and services.